createdAt,value
2019-02-27T00:00:11.427Z,5.40
2019-02-27T00:01:21.999Z,5.05
2019-02-27T00:02:27.423Z,5.37
2019-02-27T00:03:31.646Z,6.25
2019-02-27T00:04:35.841Z,5.90
2019-02-27T00:05:41.691Z,5.90
2019-02-27T00:06:47.857Z,5.75
2019-02-27T00:07:54.874Z,5.20
2019-02-27T00:09:00.486Z,5.95
2019-02-27T00:10:06.180Z,5.90
2019-02-27T00:11:12.383Z,5.60
2019-02-27T00:12:19.327Z,5.55
2019-02-27T00:13:24.974Z,5.60
2019-02-27T00:14:31.265Z,5.90
2019-02-27T00:15:37.744Z,5.62
2019-02-27T00:16:41.778Z,5.87
2019-02-27T00:17:51.142Z,6.03
2019-02-27T00:18:53.716Z,6.78
2019-02-27T00:19:58.079Z,5.62
2019-02-27T00:21:02.277Z,5.20
2019-02-27T00:22:07.053Z,6.33
2019-02-27T00:23:11.338Z,6.35
2019-02-27T00:24:15.607Z,6.28
2019-02-27T00:25:19.740Z,5.20
2019-02-27T00:26:24.001Z,6.00
2019-02-27T00:27:28.200Z,5.70
2019-02-27T00:28:32.353Z,5.85
2019-02-27T00:29:36.584Z,6.00
2019-02-27T00:30:40.851Z,6.53
2019-02-27T00:31:46.046Z,6.05
2019-02-27T00:32:51.308Z,5.40
2019-02-27T00:33:59.484Z,6.47
2019-02-27T00:35:06.149Z,5.90
2019-02-27T00:36:12.015Z,5.55
2019-02-27T00:37:14.097Z,5.17
2019-02-27T00:38:18.348Z,6.08
2019-02-27T00:39:22.680Z,5.40
2019-02-27T00:40:26.971Z,5.05
2019-02-27T00:41:31.257Z,5.25
2019-02-27T00:42:35.487Z,6.15
2019-02-27T00:43:39.658Z,5.55
2019-02-27T00:44:43.824Z,6.20
2019-02-27T00:45:47.977Z,6.28
2019-02-27T00:46:52.153Z,5.87
2019-02-27T00:47:56.303Z,5.70
2019-02-27T00:49:00.472Z,6.10
2019-02-27T00:50:06.630Z,6.42
2019-02-27T00:51:11.964Z,4.83
2019-02-27T00:52:18.269Z,6.50
2019-02-27T00:53:24.579Z,5.92
2019-02-27T00:54:29.076Z,5.90
2019-02-27T00:55:38.454Z,6.25
2019-02-27T00:56:44.797Z,6.15
2019-02-27T00:57:46.409Z,6.00
2019-02-27T00:58:50.567Z,6.20
2019-02-27T00:59:54.733Z,5.40
2019-02-27T01:00:58.900Z,6.15
2019-02-27T01:02:03.244Z,6.30
2019-02-27T01:03:07.474Z,6.08
2019-02-27T01:04:11.771Z,6.92
2019-02-27T01:05:16.037Z,6.10
2019-02-27T01:06:20.162Z,5.87
2019-02-27T01:07:24.513Z,5.25
2019-02-27T01:08:28.668Z,6.20
2019-02-27T01:09:32.939Z,6.37
2019-02-27T01:10:37.507Z,5.70
2019-02-27T01:11:41.665Z,5.92
2019-02-27T01:12:45.851Z,6.60
2019-02-27T01:13:49.967Z,5.72
2019-02-27T01:14:54.240Z,5.75
2019-02-27T01:15:58.429Z,6.17
2019-02-27T01:17:02.729Z,6.20
2019-02-27T01:18:06.920Z,5.87
2019-02-27T01:19:11.196Z,5.97
2019-02-27T01:20:15.537Z,5.90
2019-02-27T01:21:20.113Z,6.55
2019-02-27T01:22:24.606Z,6.60
2019-02-27T01:23:28.903Z,6.05
2019-02-27T01:24:33.185Z,6.70
2019-02-27T01:25:37.458Z,5.50
2019-02-27T01:26:41.985Z,6.25
2019-02-27T01:27:46.559Z,5.60
2019-02-27T01:28:50.867Z,6.33
2019-02-27T01:29:55.123Z,5.45
2019-02-27T01:30:59.391Z,6.30
2019-02-27T01:32:03.564Z,6.00
2019-02-27T01:33:07.710Z,5.60
2019-02-27T01:34:11.977Z,5.50
2019-02-27T01:35:18.716Z,6.55
2019-02-27T01:36:24.530Z,5.67
2019-02-27T01:37:31.456Z,6.10
2019-02-27T01:38:37.843Z,5.92
2019-02-27T01:39:41.870Z,5.35
2019-02-27T01:40:46.188Z,6.20
2019-02-27T01:41:50.344Z,6.12
2019-02-27T01:42:54.667Z,6.95
2019-02-27T01:43:58.783Z,5.60
2019-02-27T01:45:02.995Z,5.45
2019-02-27T01:46:07.301Z,6.35
2019-02-27T01:47:11.585Z,5.75
2019-02-27T01:48:15.733Z,5.58
2019-02-27T01:49:20.291Z,6.37
2019-02-27T01:50:30.117Z,5.70
2019-02-27T01:51:34.304Z,5.40
2019-02-27T01:52:38.539Z,5.20
2019-02-27T01:53:42.851Z,5.75
2019-02-27T01:54:49.000Z,5.75
2019-02-27T01:55:56.221Z,5.65
2019-02-27T01:56:59.911Z,6.37
2019-02-27T01:58:09.277Z,5.80
2019-02-27T01:59:14.043Z,5.58
2019-02-27T02:00:17.935Z,5.45
2019-02-27T02:01:22.119Z,4.83
2019-02-27T02:02:26.521Z,5.97
2019-02-27T02:03:30.795Z,5.55
2019-02-27T02:04:35.039Z,5.60
2019-02-27T02:05:39.311Z,5.17
2019-02-27T02:06:43.537Z,5.40
2019-02-27T02:07:48.506Z,5.62
2019-02-27T02:09:10.041Z,4.92
2019-02-27T02:10:14.289Z,5.20
2019-02-27T02:11:18.595Z,5.50
2019-02-27T02:12:29.451Z,5.47
2019-02-27T02:14:20.992Z,6.10
2019-02-27T02:15:43.328Z,5.30
2019-02-27T02:17:29.019Z,5.30
2019-02-27T02:19:08.070Z,5.40
2019-02-27T02:20:22.185Z,5.30
2019-02-27T02:22:19.478Z,5.42
2019-02-27T02:23:48.461Z,5.20
2019-02-27T02:25:55.167Z,5.33
2019-02-27T02:27:42.505Z,5.05
2019-02-27T02:29:29.547Z,5.83
2019-02-27T02:31:16.362Z,5.10
2019-02-27T02:33:00.624Z,5.72
2019-02-27T02:34:55.066Z,5.37
2019-02-27T02:36:31.478Z,4.47
2019-02-27T02:38:12.564Z,4.80
2019-02-27T02:39:54.710Z,5.80
2019-02-27T02:41:12.646Z,4.87
2019-02-27T02:42:43.441Z,4.70
2019-02-27T02:44:48.301Z,4.70
2019-02-27T02:45:59.277Z,5.12
2019-02-27T02:47:26.621Z,4.78
2019-02-27T02:48:56.453Z,4.42
2019-02-27T02:50:17.410Z,4.53
2019-02-27T02:51:46.974Z,5.12
2019-02-27T02:53:26.429Z,5.58
2019-02-27T02:55:05.466Z,4.92
2019-02-27T02:56:42.962Z,4.70
2019-02-27T02:58:07.989Z,5.05
2019-02-27T03:00:03.982Z,4.67
2019-02-27T03:01:18.456Z,5.10
2019-02-27T03:03:01.987Z,4.75
2019-02-27T03:04:20.405Z,5.00
2019-02-27T03:05:47.037Z,4.50
2019-02-27T03:07:15.125Z,4.78
2019-02-27T03:08:57.606Z,4.12
2019-02-27T03:10:28.741Z,4.80
2019-02-27T03:12:29.901Z,4.97
2019-02-27T03:14:17.094Z,5.10
2019-02-27T03:15:51.451Z,4.85
2019-02-27T03:17:20.186Z,4.67
2019-02-27T03:18:52.635Z,4.72
2019-02-27T03:20:36.480Z,5.22
2019-02-27T03:22:30.093Z,5.00
2019-02-27T03:24:28.134Z,5.15
2019-02-27T03:26:00.334Z,4.53
2019-02-27T03:27:30.615Z,5.17
2019-02-27T03:29:15.509Z,5.05
2019-02-27T03:30:56.794Z,5.05
2019-02-27T03:32:28.489Z,4.87
2019-02-27T03:33:51.888Z,4.40
2019-02-27T03:35:29.245Z,4.20
2019-02-27T03:37:18.080Z,4.85
2019-02-27T03:39:15.591Z,4.85
2019-02-27T03:40:55.686Z,4.90
2019-02-27T03:42:34.149Z,4.85
2019-02-27T03:44:38.752Z,4.53
2019-02-27T03:46:11.354Z,4.40
2019-02-27T03:47:43.768Z,4.70
2019-02-27T03:49:32.331Z,4.90
2019-02-27T03:51:02.860Z,5.00
2019-02-27T03:52:43.142Z,5.10
2019-02-27T03:54:08.029Z,5.58
2019-02-27T03:56:08.732Z,4.40
2019-02-27T03:57:31.281Z,4.55
2019-02-27T03:59:15.581Z,4.50
2019-02-27T04:00:49.804Z,5.60
2019-02-27T04:02:07.853Z,4.87
2019-02-27T04:03:24.954Z,4.53
2019-02-27T04:05:12.467Z,4.50
2019-02-27T04:06:56.291Z,5.10
2019-02-27T04:08:44.816Z,4.65
2019-02-27T04:09:47.553Z,5.05
2019-02-27T04:10:51.930Z,4.30
2019-02-27T04:11:56.200Z,4.67
2019-02-27T04:13:00.383Z,5.05
2019-02-27T04:14:31.282Z,5.15
2019-02-27T04:15:35.548Z,5.00
2019-02-27T04:16:39.800Z,4.60
2019-02-27T04:17:42.545Z,6.10
2019-02-27T04:18:46.859Z,6.60
2019-02-27T04:19:51.744Z,6.45
2019-02-27T04:20:56.065Z,5.97
2019-02-27T04:22:01.108Z,6.10
2019-02-27T04:23:11.254Z,8.63
2019-02-27T04:24:12.197Z,12.00
2019-02-27T04:25:16.479Z,12.47
2019-02-27T04:26:21.073Z,14.55
2019-02-27T04:27:25.386Z,13.70
2019-02-27T04:28:30.639Z,13.83
2019-02-27T04:29:35.140Z,14.58
2019-02-27T04:30:39.449Z,14.55
2019-02-27T04:31:43.633Z,11.90
2019-02-27T04:32:48.916Z,10.00
2019-02-27T04:33:53.403Z,7.47
2019-02-27T04:34:57.521Z,8.80
2019-02-27T04:36:01.830Z,9.83
2019-02-27T04:37:06.012Z,9.80
2019-02-27T04:38:10.359Z,10.88
2019-02-27T04:39:14.735Z,10.70
2019-02-27T04:40:18.944Z,11.45
2019-02-27T04:41:23.093Z,11.10
2019-02-27T04:42:27.265Z,8.95
2019-02-27T04:43:32.205Z,10.23
2019-02-27T04:44:38.908Z,10.58
2019-02-27T04:45:43.904Z,9.20
2019-02-27T04:46:49.629Z,6.55
2019-02-27T04:47:53.850Z,5.62
2019-02-27T04:48:58.131Z,5.90
2019-02-27T04:50:02.401Z,4.80
2019-02-27T04:51:06.708Z,4.42
2019-02-27T04:52:10.877Z,4.60
2019-02-27T04:53:15.097Z,5.15
2019-02-27T04:54:19.459Z,4.45
2019-02-27T04:55:23.726Z,4.80
2019-02-27T04:56:28.038Z,4.60
2019-02-27T04:57:33.708Z,4.90
2019-02-27T04:58:42.885Z,4.60
2019-02-27T04:59:44.299Z,4.80
2019-02-27T05:00:48.522Z,5.20
2019-02-27T05:01:52.790Z,4.78
2019-02-27T05:02:57.059Z,4.65
2019-02-27T05:04:02.118Z,5.15
2019-02-27T05:05:08.614Z,5.25
2019-02-27T05:06:14.563Z,4.78
2019-02-27T05:07:20.368Z,6.28
2019-02-27T05:08:27.051Z,5.15
2019-02-27T05:09:31.391Z,4.80
2019-02-27T05:10:38.121Z,5.50
2019-02-27T05:11:47.447Z,5.33
2019-02-27T05:12:48.990Z,6.22
2019-02-27T05:13:54.368Z,6.30
2019-02-27T05:15:03.485Z,6.53
2019-02-27T05:16:05.079Z,5.58
2019-02-27T05:17:09.447Z,6.50
2019-02-27T05:18:13.599Z,6.42
2019-02-27T05:19:17.751Z,5.80
2019-02-27T05:20:21.982Z,6.35
2019-02-27T05:21:26.257Z,6.10
2019-02-27T05:22:30.596Z,6.15
2019-02-27T05:23:34.791Z,5.75
2019-02-27T05:24:40.990Z,5.35
2019-02-27T05:25:44.948Z,5.90
2019-02-27T05:26:49.075Z,5.30
2019-02-27T05:27:53.367Z,5.65
2019-02-27T05:28:57.637Z,5.60
2019-02-27T05:30:01.963Z,6.17
2019-02-27T05:31:06.155Z,5.50
2019-02-27T05:32:10.416Z,5.62
2019-02-27T05:33:14.717Z,5.30
2019-02-27T05:34:18.988Z,5.75
2019-02-27T05:35:24.217Z,5.70
2019-02-27T05:36:28.959Z,5.30
2019-02-27T05:37:36.143Z,5.85
2019-02-27T05:38:40.983Z,5.35
2019-02-27T05:39:50.674Z,5.00
2019-02-27T05:40:52.521Z,5.25
2019-02-27T05:41:56.754Z,5.33
2019-02-27T05:43:00.950Z,5.97
2019-02-27T05:44:05.253Z,5.33
2019-02-27T05:45:11.063Z,6.40
2019-02-27T05:46:15.305Z,5.65
2019-02-27T05:47:19.627Z,5.70
2019-02-27T05:48:23.933Z,5.28
2019-02-27T05:49:28.183Z,5.67
2019-02-27T05:50:34.238Z,5.20
2019-02-27T05:51:38.511Z,5.65
2019-02-27T05:52:42.705Z,5.05
2019-02-27T05:53:46.887Z,4.85
2019-02-27T05:54:51.139Z,5.85
2019-02-27T05:55:55.305Z,5.65
2019-02-27T05:56:59.659Z,5.15
2019-02-27T05:58:03.879Z,4.75
2019-02-27T05:59:08.135Z,6.00
2019-02-27T06:00:14.995Z,6.28
2019-02-27T06:01:19.392Z,6.28
2019-02-27T06:02:25.506Z,5.55
2019-02-27T06:03:29.991Z,6.30
2019-02-27T06:04:34.578Z,6.05
2019-02-27T06:05:38.893Z,5.65
2019-02-27T06:06:45.706Z,5.30
2019-02-27T06:07:49.083Z,6.00
2019-02-27T06:08:53.307Z,5.60
2019-02-27T06:09:57.702Z,5.97
2019-02-27T06:11:02.191Z,5.80
2019-02-27T06:12:06.868Z,6.20
2019-02-27T06:13:14.007Z,6.87
2019-02-27T06:14:21.158Z,6.47
2019-02-27T06:15:26.031Z,6.20
2019-02-27T06:16:29.865Z,6.40
2019-02-27T06:17:43.168Z,6.45
2019-02-27T06:18:40.023Z,6.20
2019-02-27T06:19:44.231Z,5.67
2019-02-27T06:20:48.395Z,4.95
2019-02-27T06:21:56.072Z,5.20
2019-02-27T06:22:58.931Z,4.97
2019-02-27T06:24:03.119Z,5.75
2019-02-27T06:25:09.047Z,4.80
2019-02-27T06:26:13.229Z,5.22
2019-02-27T06:27:17.561Z,4.92
2019-02-27T06:28:21.828Z,5.30
2019-02-27T06:29:26.082Z,5.83
2019-02-27T06:30:30.606Z,5.35
2019-02-27T06:31:38.825Z,5.05
2019-02-27T06:32:41.776Z,4.83
2019-02-27T06:33:45.943Z,5.60
2019-02-27T06:34:50.125Z,5.20
2019-02-27T06:35:54.455Z,5.08
2019-02-27T06:36:58.755Z,6.28
2019-02-27T06:38:03.030Z,10.03
2019-02-27T06:39:08.723Z,13.78
2019-02-27T06:40:14.763Z,12.93
2019-02-27T06:41:18.913Z,11.40
2019-02-27T06:42:23.217Z,8.58
2019-02-27T06:43:27.943Z,9.40
2019-02-27T06:44:32.193Z,8.05
2019-02-27T06:45:36.401Z,6.65
2019-02-27T06:46:40.697Z,6.05
2019-02-27T06:47:44.884Z,5.70
2019-02-27T06:48:49.170Z,7.70
2019-02-27T06:49:53.415Z,10.60
2019-02-27T06:51:00.529Z,11.05
2019-02-27T06:52:03.893Z,11.08
2019-02-27T06:53:08.105Z,9.48
2019-02-27T06:54:12.394Z,7.78
2019-02-27T06:55:16.597Z,7.30
2019-02-27T06:56:21.081Z,6.87
2019-02-27T06:57:26.801Z,5.97
2019-02-27T06:58:31.133Z,6.37
2019-02-27T06:59:35.411Z,5.90
2019-02-27T07:00:39.701Z,5.45
2019-02-27T07:01:45.130Z,6.37
2019-02-27T07:02:49.867Z,6.67
2019-02-27T07:03:54.087Z,5.67
2019-02-27T07:04:58.907Z,5.30
2019-02-27T07:06:03.258Z,5.83
2019-02-27T07:07:07.551Z,6.03
2019-02-27T07:08:11.880Z,6.60
2019-02-27T07:09:16.111Z,6.10
2019-02-27T07:10:20.702Z,5.80
2019-02-27T07:11:25.164Z,6.12
2019-02-27T07:12:29.471Z,5.15
2019-02-27T07:13:33.873Z,6.30
2019-02-27T07:14:39.200Z,5.90
2019-02-27T07:15:47.800Z,5.60
2019-02-27T07:16:49.973Z,5.37
2019-02-27T07:17:54.235Z,6.22
2019-02-27T07:18:58.519Z,5.60
2019-02-27T07:20:02.802Z,6.10
2019-02-27T07:21:07.207Z,5.60
2019-02-27T07:22:12.648Z,5.40
2019-02-27T07:23:22.822Z,5.83
2019-02-27T07:24:23.061Z,5.55
2019-02-27T07:25:27.352Z,5.85
2019-02-27T07:26:31.498Z,6.30
2019-02-27T07:27:35.681Z,5.40
2019-02-27T07:28:43.146Z,6.12
2019-02-27T07:29:45.777Z,5.35
2019-02-27T07:30:50.003Z,5.83
2019-02-27T07:31:54.141Z,5.78
2019-02-27T07:32:58.529Z,5.72
2019-02-27T07:34:03.175Z,6.00
2019-02-27T07:35:07.891Z,5.50
2019-02-27T07:36:12.031Z,5.90
2019-02-27T07:37:16.289Z,6.00
2019-02-27T07:38:21.599Z,6.65
2019-02-27T07:39:26.535Z,5.75
2019-02-27T07:40:30.735Z,6.03
2019-02-27T07:41:34.894Z,6.30
2019-02-27T07:42:39.149Z,5.42
2019-02-27T07:43:43.439Z,6.22
2019-02-27T07:44:47.911Z,6.08
2019-02-27T07:45:54.198Z,5.65
2019-02-27T07:46:58.146Z,6.20
2019-02-27T07:48:02.811Z,5.62
2019-02-27T07:49:07.133Z,5.92
2019-02-27T07:50:12.946Z,6.58
2019-02-27T07:51:17.240Z,6.55
2019-02-27T07:52:21.527Z,6.90
2019-02-27T07:53:25.841Z,6.15
2019-02-27T07:54:30.181Z,6.50
2019-02-27T07:55:34.497Z,7.10
2019-02-27T07:56:38.644Z,6.55
2019-02-27T07:57:43.288Z,7.12
2019-02-27T07:58:47.469Z,6.70
2019-02-27T07:59:51.667Z,6.90
2019-02-27T08:00:55.903Z,5.80
2019-02-27T08:02:02.457Z,7.00
2019-02-27T08:03:09.224Z,6.58
2019-02-27T08:04:11.998Z,6.35
2019-02-27T08:05:16.331Z,6.05
2019-02-27T08:06:20.543Z,6.22
2019-02-27T08:07:24.779Z,6.20
2019-02-27T08:08:29.080Z,5.50
2019-02-27T08:09:33.365Z,6.40
2019-02-27T08:10:37.656Z,5.97
2019-02-27T08:11:47.146Z,6.42
2019-02-27T08:12:48.729Z,6.40
2019-02-27T08:13:52.935Z,5.97
2019-02-27T08:14:57.241Z,6.47
2019-02-27T08:16:01.394Z,7.40
2019-02-27T08:17:16.962Z,6.33
2019-02-27T08:18:12.015Z,7.03
2019-02-27T08:19:16.441Z,6.65
2019-02-27T08:20:21.253Z,7.15
2019-02-27T08:21:25.563Z,6.83
2019-02-27T08:22:29.775Z,6.10
2019-02-27T08:23:34.098Z,6.40
2019-02-27T08:24:38.423Z,6.10
2019-02-27T08:25:42.646Z,5.90
2019-02-27T08:26:46.817Z,5.33
2019-02-27T08:27:51.128Z,6.72
2019-02-27T08:28:55.395Z,7.78
2019-02-27T08:29:59.923Z,7.25
2019-02-27T08:31:04.231Z,8.05
2019-02-27T08:32:08.704Z,9.55
2019-02-27T08:33:15.148Z,8.80
2019-02-27T08:34:19.138Z,7.78
2019-02-27T08:35:23.324Z,8.90
2019-02-27T08:36:27.879Z,8.70
2019-02-27T08:37:32.161Z,8.10
2019-02-27T08:38:36.324Z,8.08
2019-02-27T08:39:40.486Z,8.15
2019-02-27T08:40:44.680Z,7.67
2019-02-27T08:41:49.035Z,7.25
2019-02-27T08:42:53.331Z,7.55
2019-02-27T08:43:57.624Z,7.55
2019-02-27T08:45:01.913Z,7.25
2019-02-27T08:46:06.184Z,6.80
2019-02-27T08:47:10.864Z,6.70
2019-02-27T08:48:17.414Z,7.22
2019-02-27T08:49:24.200Z,6.55
2019-02-27T08:50:29.131Z,6.42
2019-02-27T08:51:33.221Z,6.17
2019-02-27T08:52:37.392Z,6.55
2019-02-27T08:53:41.675Z,6.42
2019-02-27T08:54:45.887Z,6.60
2019-02-27T08:55:50.129Z,6.45
2019-02-27T08:56:54.425Z,6.58
2019-02-27T08:57:58.600Z,6.65
2019-02-27T08:59:04.992Z,6.70
2019-02-27T09:00:14.337Z,5.35
2019-02-27T09:01:19.076Z,6.00
2019-02-27T09:02:29.201Z,6.40
2019-02-27T09:03:30.774Z,5.65
2019-02-27T09:04:35.056Z,6.45
2019-02-27T09:05:39.358Z,6.25
2019-02-27T09:06:43.635Z,6.00
2019-02-27T09:07:47.773Z,6.22
2019-02-27T09:08:51.929Z,6.58
2019-02-27T09:09:56.167Z,6.62
2019-02-27T09:11:05.519Z,6.78
2019-02-27T09:12:06.553Z,6.20
2019-02-27T09:13:10.734Z,6.65
2019-02-27T09:14:15.060Z,6.28
2019-02-27T09:15:19.322Z,6.10
2019-02-27T09:16:26.025Z,6.30
2019-02-27T09:17:29.677Z,7.05
2019-02-27T09:18:36.524Z,6.58
2019-02-27T09:19:44.968Z,6.35
2019-02-27T09:20:45.815Z,6.42
2019-02-27T09:21:50.408Z,7.42
2019-02-27T09:22:55.892Z,8.05
2019-02-27T09:24:00.451Z,6.62
2019-02-27T09:25:04.842Z,6.50
2019-02-27T09:26:09.219Z,6.33
2019-02-27T09:27:13.575Z,6.70
2019-02-27T09:28:17.747Z,6.37
2019-02-27T09:29:22.067Z,7.37
2019-02-27T09:30:29.272Z,6.28
2019-02-27T09:31:34.686Z,6.75
2019-02-27T09:32:38.339Z,6.65
2019-02-27T09:33:42.618Z,6.33
2019-02-27T09:34:46.785Z,6.92
2019-02-27T09:35:51.096Z,6.53
2019-02-27T09:36:55.341Z,6.80
2019-02-27T09:37:59.661Z,6.20
2019-02-27T09:39:04.890Z,7.03
2019-02-27T09:40:11.657Z,7.08
2019-02-27T09:41:16.305Z,6.28
2019-02-27T09:42:20.679Z,7.10
2019-02-27T09:43:27.331Z,7.22
2019-02-27T09:44:30.934Z,6.35
2019-02-27T09:45:35.535Z,6.45
2019-02-27T09:46:39.943Z,7.05
2019-02-27T09:47:44.223Z,6.58
2019-02-27T09:48:48.409Z,7.08
2019-02-27T09:49:52.555Z,6.67
2019-02-27T09:50:57.033Z,6.83
2019-02-27T09:52:01.599Z,6.78
2019-02-27T09:53:06.008Z,6.55
2019-02-27T09:54:11.054Z,6.47
2019-02-27T09:55:20.179Z,7.05
2019-02-27T09:56:22.371Z,7.35
2019-02-27T09:57:27.183Z,6.47
2019-02-27T09:58:31.457Z,6.40
2019-02-27T09:59:47.720Z,6.67
2019-02-27T10:07:28.274Z,7.17
2019-02-27T10:08:32.611Z,6.65
2019-02-27T10:09:36.889Z,7.28
2019-02-27T10:10:44.742Z,6.58
2019-02-27T10:11:47.573Z,6.92
2019-02-27T10:12:51.918Z,7.22
2019-02-27T10:13:56.137Z,7.10
2019-02-27T10:15:00.255Z,6.65
2019-02-27T10:16:04.627Z,7.17
2019-02-27T10:17:09.132Z,7.70
2019-02-27T10:18:18.367Z,7.80
2019-02-27T10:19:20.189Z,6.55
2019-02-27T10:20:24.791Z,6.45
2019-02-27T10:21:29.291Z,8.38
2019-02-27T10:22:33.491Z,8.35
2019-02-27T10:23:37.683Z,7.70
2019-02-27T10:24:41.968Z,7.12
2019-02-27T10:25:46.221Z,7.05
2019-02-27T10:26:50.488Z,6.95
2019-02-27T10:27:54.673Z,7.08
2019-02-27T10:28:58.865Z,7.80
2019-02-27T10:30:11.126Z,6.60
2019-02-27T10:31:09.180Z,7.65
2019-02-27T10:32:13.698Z,6.47
2019-02-27T10:33:17.855Z,7.55
2019-02-27T10:34:21.991Z,7.62
2019-02-27T10:35:26.833Z,7.90
2019-02-27T10:36:32.235Z,8.18
2019-02-27T10:37:36.486Z,6.30
2019-02-27T10:38:40.727Z,6.40
2019-02-27T10:39:44.972Z,8.43
2019-02-27T10:40:49.195Z,6.45
2019-02-27T10:41:53.449Z,7.45
2019-02-27T10:42:57.754Z,5.97
2019-02-27T10:44:01.899Z,6.65
2019-02-27T10:45:09.958Z,6.40
2019-02-27T10:46:12.931Z,6.53
2019-02-27T10:47:17.063Z,6.30
2019-02-27T10:48:21.353Z,7.03
2019-02-27T10:49:25.579Z,6.50
2019-02-27T10:50:29.939Z,7.03
2019-02-27T10:51:34.207Z,6.70
2019-02-27T10:52:38.405Z,6.80
2019-02-27T10:53:42.719Z,6.37
2019-02-27T10:54:46.923Z,5.80
2019-02-27T10:55:51.242Z,6.25
2019-02-27T10:56:56.294Z,6.70
2019-02-27T10:58:01.451Z,6.37
2019-02-27T10:59:05.618Z,6.45
2019-02-27T11:00:25.937Z,6.55
2019-02-27T11:01:30.234Z,5.30
2019-02-27T11:02:34.489Z,6.58
2019-02-27T11:03:38.767Z,6.20
2019-02-27T11:04:42.972Z,6.72
2019-02-27T11:05:51.995Z,6.20
2019-02-27T11:06:53.280Z,5.92
2019-02-27T11:07:57.434Z,6.40
2019-02-27T11:09:04.465Z,6.00
2019-02-27T11:10:07.839Z,5.60
2019-02-27T11:11:13.144Z,6.17
2019-02-27T11:12:17.978Z,6.20
2019-02-27T11:13:22.260Z,6.20
2019-02-27T11:14:26.399Z,5.65
2019-02-27T11:15:30.631Z,6.92
2019-02-27T11:16:34.940Z,5.87
2019-02-27T11:17:39.133Z,6.12
2019-02-27T11:18:43.426Z,5.92
2019-02-27T11:19:47.762Z,6.33
2019-02-27T11:20:51.928Z,6.10
2019-02-27T11:21:58.314Z,6.10
2019-02-27T11:23:06.752Z,6.28
2019-02-27T11:24:07.907Z,6.42
2019-02-27T11:25:14.388Z,5.78
2019-02-27T11:26:18.704Z,5.40
2019-02-27T11:27:22.974Z,5.17
2019-02-27T11:28:27.195Z,4.75
2019-02-27T11:29:31.390Z,5.95
2019-02-27T11:30:36.994Z,4.75
2019-02-27T11:31:42.294Z,5.60
2019-02-27T11:32:47.699Z,4.80
2019-02-27T11:33:52.004Z,5.33
2019-02-27T11:34:56.411Z,5.65
2019-02-27T11:36:03.214Z,5.20
2019-02-27T11:37:06.480Z,5.55
2019-02-27T11:38:10.657Z,5.65
2019-02-27T11:39:15.694Z,5.28
2019-02-27T11:40:21.469Z,5.03
2019-02-27T11:41:25.689Z,4.35
2019-02-27T11:42:32.052Z,3.70
2019-02-27T11:43:38.000Z,3.77
2019-02-27T11:44:41.916Z,3.95
2019-02-27T11:45:46.277Z,5.20
2019-02-27T11:46:58.606Z,4.65
2019-02-27T11:47:56.986Z,3.67
2019-02-27T11:49:03.198Z,4.85
2019-02-27T11:50:08.858Z,4.40
2019-02-27T11:51:13.971Z,4.72
2019-02-27T11:52:18.313Z,4.70
2019-02-27T11:53:22.556Z,4.72
2019-02-27T11:54:26.741Z,5.22
2019-02-27T11:55:31.000Z,4.47
2019-02-27T11:56:35.153Z,4.37
2019-02-27T11:57:39.335Z,4.58
2019-02-27T11:58:43.621Z,5.00
2019-02-27T11:59:47.982Z,4.95
2019-02-27T12:00:52.295Z,5.65
2019-02-27T12:01:57.885Z,4.08
2019-02-27T12:03:02.171Z,5.00
2019-02-27T12:04:06.347Z,4.90
2019-02-27T12:05:12.350Z,4.20
2019-02-27T12:06:16.599Z,4.75
2019-02-27T12:07:20.757Z,5.40
2019-02-27T12:08:26.492Z,4.25
2019-02-27T12:09:34.969Z,5.12
2019-02-27T12:10:36.902Z,6.10
2019-02-27T12:11:41.135Z,5.25
2019-02-27T12:12:45.391Z,5.15
2019-02-27T12:13:49.767Z,4.67
2019-02-27T12:14:53.938Z,4.78
2019-02-27T12:15:58.051Z,5.15
2019-02-27T12:17:02.439Z,5.72
2019-02-27T12:18:07.041Z,4.67
2019-02-27T12:19:11.353Z,4.67
2019-02-27T12:20:18.259Z,4.03
2019-02-27T12:21:25.426Z,4.40
2019-02-27T12:22:29.083Z,3.80
2019-02-27T12:23:33.310Z,4.53
2019-02-27T12:24:37.489Z,4.78
2019-02-27T12:25:41.824Z,4.90
2019-02-27T12:26:46.007Z,4.35
2019-02-27T12:27:53.503Z,4.53
2019-02-27T12:28:57.797Z,5.47
2019-02-27T12:30:03.092Z,4.47
2019-02-27T12:31:10.935Z,5.28
2019-02-27T12:32:14.501Z,4.50
2019-02-27T12:33:18.840Z,4.53
2019-02-27T12:34:23.024Z,4.17
2019-02-27T12:35:28.625Z,5.60
2019-02-27T12:36:32.856Z,4.20
2019-02-27T12:37:37.137Z,5.10
2019-02-27T12:38:42.344Z,4.83
2019-02-27T12:39:49.601Z,5.50
2019-02-27T12:40:53.294Z,5.45
2019-02-27T12:41:57.475Z,5.05
2019-02-27T12:43:01.802Z,4.90
2019-02-27T12:44:06.051Z,4.97
2019-02-27T12:45:15.651Z,4.85
2019-02-27T12:46:19.944Z,4.25
2019-02-27T12:47:24.227Z,4.70
2019-02-27T12:48:28.397Z,4.53
2019-02-27T12:49:32.661Z,4.60
2019-02-27T12:50:36.951Z,4.67
2019-02-27T12:51:41.185Z,4.00
2019-02-27T12:52:47.901Z,4.83
2019-02-27T12:53:54.380Z,4.70
2019-02-27T12:54:59.211Z,4.37
2019-02-27T12:56:03.345Z,4.37
2019-02-27T12:57:07.880Z,3.98
2019-02-27T12:58:13.408Z,4.15
2019-02-27T12:59:17.888Z,4.47
2019-02-27T13:00:24.744Z,3.52
2019-02-27T13:01:29.074Z,4.25
2019-02-27T13:02:35.819Z,4.47
2019-02-27T13:03:42.168Z,4.45
2019-02-27T13:04:45.281Z,4.75
2019-02-27T13:05:49.466Z,4.00
2019-02-27T13:06:53.801Z,4.15
2019-02-27T13:07:58.578Z,5.20
2019-02-27T13:09:03.125Z,5.78
2019-02-27T13:10:09.833Z,4.05
2019-02-27T13:11:14.115Z,3.98
2019-02-27T13:12:18.787Z,4.33
2019-02-27T13:13:23.257Z,4.30
2019-02-27T13:14:32.959Z,4.10
2019-02-27T13:15:34.872Z,4.30
2019-02-27T13:16:39.193Z,4.67
2019-02-27T13:17:43.691Z,4.70
2019-02-27T13:18:47.890Z,4.67
2019-02-27T13:19:52.047Z,4.58
2019-02-27T13:20:56.340Z,3.92
2019-02-27T13:22:00.575Z,4.40
2019-02-27T13:23:05.413Z,4.10
2019-02-27T13:24:09.962Z,4.58
2019-02-27T13:25:14.812Z,5.10
2019-02-27T13:26:19.095Z,4.72
2019-02-27T13:27:25.107Z,5.47
2019-02-27T13:28:29.404Z,6.10
2019-02-27T13:29:33.983Z,5.58
2019-02-27T13:30:41.339Z,5.45
2019-02-27T13:31:44.035Z,5.50
2019-02-27T13:32:48.184Z,5.10
2019-02-27T13:33:52.439Z,5.08
2019-02-27T13:34:56.949Z,4.90
2019-02-27T13:36:01.145Z,5.42
2019-02-27T13:37:09.148Z,5.00
2019-02-27T13:38:11.635Z,5.08
2019-02-27T13:39:15.971Z,4.10
2019-02-27T13:40:20.676Z,4.05
2019-02-27T13:41:24.905Z,4.28
2019-02-27T13:42:29.331Z,4.53
2019-02-27T13:43:33.507Z,4.60
2019-02-27T13:44:38.903Z,4.20
2019-02-27T13:45:47.340Z,4.15
2019-02-27T13:46:49.235Z,3.80
2019-02-27T13:47:53.604Z,4.03
2019-02-27T13:48:57.779Z,4.85
2019-02-27T13:50:01.990Z,4.97
2019-02-27T13:51:06.267Z,4.17
2019-02-27T13:52:12.720Z,4.42
2019-02-27T13:53:16.497Z,4.40
2019-02-27T13:54:22.001Z,4.47
2019-02-27T13:55:26.685Z,4.55
2019-02-27T13:56:30.901Z,4.50
2019-02-27T13:57:35.250Z,4.40
2019-02-27T13:58:39.545Z,4.35
2019-02-27T13:59:44.897Z,4.10
2019-02-27T14:00:53.639Z,4.30
2019-02-27T14:01:55.953Z,4.53
2019-02-27T14:03:00.211Z,3.72
2019-02-27T14:04:04.407Z,3.42
2019-02-27T14:05:10.096Z,3.83
2019-02-27T14:06:14.481Z,4.35
2019-02-27T14:07:23.592Z,3.80
2019-02-27T14:08:24.725Z,4.15
2019-02-27T14:09:28.993Z,3.90
2019-02-27T14:10:33.388Z,3.83
2019-02-27T14:11:37.653Z,3.62
2019-02-27T14:12:41.815Z,3.22
2019-02-27T14:13:46.035Z,3.22
2019-02-27T14:14:53.322Z,3.20
2019-02-27T14:15:58.066Z,2.85
2019-02-27T14:17:02.153Z,2.85
2019-02-27T14:18:06.465Z,4.60
2019-02-27T14:19:10.609Z,3.85
2019-02-27T14:20:16.483Z,3.90
2019-02-27T14:21:20.655Z,4.28
2019-02-27T14:22:24.892Z,3.95
2019-02-27T14:23:29.255Z,4.33
2019-02-27T14:24:33.415Z,4.58
2019-02-27T14:25:37.659Z,4.03
2019-02-27T14:26:42.225Z,3.92
2019-02-27T14:27:47.472Z,3.95
2019-02-27T14:28:55.137Z,3.25
2019-02-27T14:29:58.275Z,3.00
2019-02-27T14:31:02.855Z,3.83
2019-02-27T14:32:07.011Z,3.65
2019-02-27T14:33:11.232Z,3.20
2019-02-27T14:34:15.387Z,3.42
2019-02-27T14:35:19.708Z,3.77
2019-02-27T14:36:24.060Z,3.30
2019-02-27T14:37:28.542Z,3.87
2019-02-27T14:38:32.809Z,4.20
2019-02-27T14:39:36.969Z,4.42
2019-02-27T14:40:41.387Z,3.85
2019-02-27T14:41:47.774Z,3.80
2019-02-27T14:42:54.855Z,3.77
2019-02-27T14:43:58.583Z,4.08
2019-02-27T14:45:05.787Z,3.67
2019-02-27T14:46:11.541Z,4.47
2019-02-27T14:47:16.409Z,3.90
2019-02-27T14:48:21.493Z,4.28
2019-02-27T14:49:27.331Z,3.65
2019-02-27T14:50:34.550Z,3.37
2019-02-27T14:51:41.093Z,4.37
2019-02-27T14:52:45.165Z,3.85
2019-02-27T14:53:52.660Z,5.33
2019-02-27T14:54:56.034Z,4.42
2019-02-27T14:56:00.165Z,3.45
2019-02-27T14:57:04.563Z,4.00
2019-02-27T14:58:08.835Z,4.10
2019-02-27T14:59:13.135Z,3.72
2019-02-27T15:00:20.807Z,4.00
2019-02-27T15:01:26.947Z,3.62
2019-02-27T15:02:30.983Z,3.20
2019-02-27T15:03:35.143Z,3.62
2019-02-27T15:04:39.435Z,3.35
2019-02-27T15:05:45.258Z,2.70
2019-02-27T15:06:51.268Z,3.75
2019-02-27T15:07:55.795Z,3.47